Time;durP1;ratioP1;P1;durP2;ratioP2;P2;SDS_P1;SDS_P2;PMS_P1;PMS_P2;Temp;Humidity;BMP_temperature;BMP_pressure;BME280_temperature;BME280_humidity;BME280_pressure;Samples;Min_cycle;Max_cycle;Signal;HPM_P1;HPM_P2
2021/10/10 10:26:57;;;;;;;55.47;27.52;;;13.20;99.90;;;;;;12007359;27;20946;-66
2021/10/10 10:32:49;;;;;;;44.73;26.23;;;13.70;99.90;;;;;;12041679;27;20067;-65
2021/10/10 10:38:46;;;;;;;43.63;24.65;;;14.40;99.90;;;;;;12033893;27;20095;-66
2021/10/10 10:44:43;;;;;;;48.35;26.30;;;14.80;99.90;;;;;;12046291;27;20057;-64
2021/10/10 11:17:04;;;;;;;38.22;22.98;;;14.10;99.90;;;;;;12053103;27;20481;-65
2021/10/10 11:22:51;;;;;;;38.40;21.83;;;14.70;99.90;;;;;;11946973;28;20061;-66
2021/10/10 11:28:41;;;;;;;34.17;19.10;;;15.10;99.90;;;;;;11971875;28;20072;-65
2021/10/10 11:34:32;;;;;;;40.35;17.77;;;15.50;99.90;;;;;;11942759;28;20123;-66
2021/10/10 11:40:20;;;;;;;33.97;18.45;;;15.80;99.90;;;;;;11963337;28;20168;-65
2021/10/10 11:53:00;;;;;;;29.27;16.00;;;16.50;99.90;;;;;;11983749;28;20140;-65
2021/10/10 11:58:46;;;;;;;28.52;16.02;;;16.50;99.90;;;;;;11984278;28;20056;-65
2021/10/10 12:04:33;;;;;;;23.30;12.70;;;16.80;99.90;;;;;;11999940;27;20427;-66
2021/10/10 12:10:27;;;;;;;20.55;12.90;;;17.00;99.90;;;;;;12004343;28;20074;-66
2021/10/10 12:16:14;;;;;;;21.27;11.77;;;17.20;99.90;;;;;;12011090;28;20053;-66
2021/10/10 12:22:03;;;;;;;20.70;13.10;;;17.50;99.90;;;;;;12006058;28;20519;-65
2021/10/10 12:28:01;;;;;;;26.45;13.02;;;17.80;99.90;;;;;;11974035;28;20048;-65
2021/10/10 12:33:48;;;;;;;20.38;12.80;;;18.10;99.90;;;;;;11956564;28;20088;-65
2021/10/10 12:39:42;;;;;;;24.55;12.18;;;18.20;99.90;;;;;;11973466;28;20574;-65
2021/10/10 12:45:59;;;;;;;22.60;12.90;;;18.30;99.90;;;;;;11973280;28;20477;-65
2021/10/10 12:51:53;;;;;;;20.98;13.05;;;18.50;99.90;;;;;;11972399;28;20535;-66
2021/10/10 12:57:50;;;;;;;37.70;23.45;;;18.60;99.90;;;;;;11959698;28;20725;-65
2021/10/10 13:03:38;;;;;;;26.52;13.57;;;18.80;99.90;;;;;;11925640;28;20053;-65
2021/10/10 13:09:25;;;;;;;27.17;13.48;;;18.90;99.90;;;;;;11935158;28;20517;-66
2021/10/10 13:15:12;;;;;;;20.95;13.18;;;18.50;99.90;;;;;;11970764;28;20085;-65
2021/10/10 13:21:03;;;;;;;20.08;11.93;;;18.40;99.90;;;;;;11969850;28;20033;-65
2021/10/10 13:26:51;;;;;;;30.25;15.25;;;18.30;99.90;;;;;;11970644;28;20096;-65
2021/10/10 13:32:40;;;;;;;22.73;14.48;;;18.40;99.90;;;;;;11968908;28;20056;-65
2021/10/10 13:38:29;;;;;;;22.83;13.77;;;18.50;99.90;;;;;;11969604;28;20092;-65
2021/10/10 13:44:16;;;;;;;27.83;15.55;;;18.70;99.90;;;;;;11970166;28;20061;-66
2021/10/10 13:50:04;;;;;;;30.98;15.18;;;18.90;99.90;;;;;;11969555;28;20053;-65
2021/10/10 13:55:53;;;;;;;25.83;15.15;;;19.10;99.90;;;;;;11970688;28;20402;-66
2021/10/10 14:01:39;;;;;;;31.58;16.05;;;19.30;99.90;;;;;;11937007;28;20042;-65
2021/10/10 14:07:26;;;;;;;23.45;15.27;;;19.30;99.90;;;;;;11974542;28;20059;-66
2021/10/10 14:13:15;;;;;;;26.88;15.88;;;19.40;99.90;;;;;;11967311;28;20061;-66
2021/10/10 14:19:03;;;;;;;29.27;17.00;;;19.50;99.90;;;;;;11968642;28;20137;-66
2021/10/10 14:24:50;;;;;;;32.47;19.67;;;19.50;99.90;;;;;;11968338;28;20041;-66
2021/10/10 14:30:39;;;;;;;29.63;18.65;;;19.40;99.90;;;;;;11967653;28;20041;-66
2021/10/10 14:36:26;;;;;;;27.20;16.92;;;19.60;99.90;;;;;;11967294;28;20053;-66
2021/10/10 14:42:17;;;;;;;33.92;16.27;;;19.50;99.90;;;;;;11966453;28;20056;-65
2021/10/10 14:48:08;;;;;;;29.48;17.60;;;19.50;99.90;;;;;;11967038;28;20134;-65
2021/10/10 14:53:55;;;;;;;30.60;17.52;;;19.40;99.90;;;;;;11968095;28;20081;-65
2021/10/10 14:59:42;;;;;;;27.50;16.90;;;19.30;99.90;;;;;;11947733;28;20044;-65
2021/10/10 15:05:31;;;;;;;29.20;17.00;;;19.40;99.90;;;;;;11932144;28;20425;-65
2021/10/10 15:11:18;;;;;;;27.35;17.52;;;19.50;99.90;;;;;;11929675;28;20053;-65
2021/10/10 15:17:05;;;;;;;27.40;15.95;;;19.30;99.90;;;;;;11927093;28;20041;-64
2021/10/10 15:22:56;;;;;;;29.27;17.38;;;19.20;99.90;;;;;;11927926;28;20042;-65
2021/10/10 15:28:43;;;;;;;29.58;16.98;;;19.30;99.90;;;;;;11930438;28;20044;-65
2021/10/10 15:34:31;;;;;;;39.10;18.92;;;19.40;99.90;;;;;;11934462;28;20060;-65
2021/10/10 15:40:20;;;;;;;30.33;18.08;;;19.30;99.90;;;;;;11934437;28;20049;-65
2021/10/10 15:46:07;;;;;;;32.72;18.48;;;19.20;99.90;;;;;;11930696;28;20080;-65
2021/10/10 15:51:54;;;;;;;37.47;19.75;;;19.00;99.90;;;;;;11933233;28;20054;-65
2021/10/10 15:57:42;;;;;;;30.85;18.38;;;19.00;99.90;;;;;;11930189;28;20053;-65
2021/10/10 16:10:12;;;;;;;34.90;19.10;;;18.90;99.90;;;;;;11974470;28;20033;-65
2021/10/10 16:16:01;;;;;;;38.20;21.58;;;18.80;99.90;;;;;;11954531;28;20057;-65
2021/10/10 16:21:48;;;;;;;32.63;19.77;;;18.50;99.90;;;;;;11966947;27;20057;-65
2021/10/10 16:27:35;;;;;;;36.20;20.42;;;18.40;99.90;;;;;;11949255;28;20055;-65
2021/10/10 16:33:27;;;;;;;36.78;20.13;;;18.10;99.90;;;;;;11959648;28;20049;-65
2021/10/10 16:39:17;;;;;;;32.97;18.63;;;17.90;99.90;;;;;;11961609;28;20192;-65
2021/10/10 16:45:04;;;;;;;37.72;18.85;;;17.80;99.90;;;;;;11972819;28;20416;-65
2021/10/10 16:50:58;;;;;;;35.78;19.55;;;17.70;99.90;;;;;;11972414;28;20042;-65
2021/10/10 16:56:45;;;;;;;;;;;17.60;99.90;;;;;;11971665;28;20139;-65
2021/10/10 17:02:32;;;;;;;33.10;18.40;;;17.50;99.90;;;;;;11937072;28;19928;-65
2021/10/10 17:08:20;;;;;;;32.65;17.77;;;17.30;99.90;;;;;;11934185;28;22850;-66
2021/10/10 17:14:15;;;;;;;36.90;18.45;;;17.10;99.90;;;;;;11935557;28;20605;-66
2021/10/10 17:20:02;;;;;;;32.38;18.85;;;16.90;99.90;;;;;;11937959;28;20469;-66
2021/10/10 17:25:51;;;;;;;33.80;20.38;;;16.70;99.90;;;;;;11936991;28;20049;-66
2021/10/10 17:31:38;;;;;;;32.83;19.75;;;16.50;99.90;;;;;;11934507;28;20042;-65
2021/10/10 17:37:25;;;;;;;37.35;20.83;;;16.40;99.90;;;;;;11934969;28;20049;-65
2021/10/10 17:43:13;;;;;;;35.15;20.17;;;16.30;99.90;;;;;;11917378;28;20073;-65
2021/10/10 17:49:01;;;;;;;37.95;22.38;;;16.20;99.90;;;;;;11934888;28;20081;-64
2021/10/10 17:54:48;;;;;;;40.65;21.77;;;16.10;99.90;;;;;;11942214;28;20064;-65
2021/10/10 18:00:47;;;;;;;36.88;21.85;;;16.00;99.90;;;;;;11932659;28;20038;-66
2021/10/10 18:12:46;;;;;;;46.10;25.75;;;15.90;99.90;;;;;;11964993;28;20536;-66
2021/10/10 18:18:36;;;;;;;43.20;25.17;;;15.80;99.90;;;;;;11922747;28;20053;-66
2021/10/10 18:24:23;;;;;;;43.75;26.52;;;15.70;99.90;;;;;;11965106;28;20079;-66
2021/10/10 18:30:12;;;;;;;41.25;25.63;;;15.60;99.90;;;;;;11968207;28;20048;-66
2021/10/10 18:36:00;;;;;;;51.50;27.17;;;15.50;99.90;;;;;;11967313;28;20053;-66
2021/10/10 18:41:47;;;;;;;47.00;25.65;;;15.40;99.90;;;;;;11968303;28;20048;-66
2021/10/10 18:47:34;;;;;;;49.63;27.73;;;15.40;99.90;;;;;;11967577;28;20053;-66
2021/10/10 18:53:22;;;;;;;44.00;25.50;;;15.40;99.90;;;;;;11962436;28;20064;-66
2021/10/10 18:59:09;;;;;;;42.15;26.02;;;15.40;99.90;;;;;;11903704;28;20057;-66
2021/10/10 19:04:56;;;;;;;40.70;25.42;;;15.30;99.90;;;;;;11884887;28;20064;-66
2021/10/10 19:10:44;;;;;;;56.72;28.48;;;15.30;99.90;;;;;;11936689;28;20068;-67
2021/10/10 19:16:31;;;;;;;49.47;29.13;;;15.20;99.90;;;;;;11933645;28;20474;-65
